This is the latest recevied weather packets stored in our database for station/object YO8SHU-10. If no packets are shown the sender has not sent any weather packets the latest 10 day(s).
| Time | Temp. | Humidity | Pressure | Rain* | Wind** | Luminosity | Snow |
|---|---|---|---|---|---|---|---|
| 1788634862 | 18.89° C | 100% | 1022 hPa | - | - | - | - |
| 1788633061 | 18.89° C | 100% | 1021.7 hPa | - | - | - | - |
| 1788631261 | 19.44° C | 100% | 1021.3 hPa | - | - | - | - |
| 1788629461 | 21.67° C | 100% | 1020.4 hPa | - | - | - | - |
| 1788627661 | 22.22° C | 92% | 1021.2 hPa | - | - | - | - |
| 1788625861 | 23.33° C | 88% | 1020.2 hPa | - | - | - | - |
| 1788624061 | 24.44° C | 87% | 1019.3 hPa | - | - | - | - |
| 1788622261 | 27.78° C | 74% | 1018.3 hPa | - | - | - | - |
| 1788620461 | 32.78° C | 52% | 1017.9 hPa | - | - | - | - |
| 1788618661 | 37.22° C | 30% | 1016.9 hPa | - | - | - | - |
| 1788616860 | 37.22° C | 42% | 1016.9 hPa | - | - | - | - |
| 1788615060 | 36.67° C | 40% | 1017 hPa | - | - | - | - |
| 1788613260 | 36.67° C | 40% | 1017.4 hPa | - | - | - | - |
| 1788611460 | 36.11° C | 43% | 1018 hPa | - | - | - | - |
| 1788609660 | 35° C | 44% | 1018.4 hPa | - | - | - | - |
| 1788607860 | 34.44° C | 40% | 1018.6 hPa | - | - | - | - |
| 1788606078 | 34.44° C | 43% | 1018.6 hPa | - | - | - | - |
| 1788604260 | 34.44° C | 45% | 1018.8 hPa | - | - | - | - |
| 1788602460 | 33.89° C | 45% | 1019.2 hPa | - | - | - | - |
| 1788600659 | 32.78° C | 51% | 1019.4 hPa | - | - | - | - |
| 1788598859 | 32.78° C | 64% | 1019.8 hPa | - | - | - | - |
| 1788597059 | 31.11° C | 64% | 1020.2 hPa | - | - | - | - |
| 1788595259 | 30° C | 58% | 1020.4 hPa | - | - | - | - |
| 1788593459 | 30° C | 70% | 1020.3 hPa | - | - | - | - |
| 1788591659 | 28.33° C | 70% | 1020.4 hPa | - | - | - | - |
* Rain since midnight (hover to see other rain measurements)
** Current wind speed in m/s (hover to see current wind gust speed)